sensor_id;sensor_type;location;lat;lon;timestamp;pressure;altitude;pressure_sealevel;temperature;humidity
42001;BME280;27689;48.390;10.856;2022-09-21T00:00:40;96886.31;;;7.08;95.95
42001;BME280;27689;48.390;10.856;2022-09-21T00:03:24;96882.47;;;7.01;96.66
42001;BME280;27689;48.390;10.856;2022-09-21T00:06:16;96878.91;;;7.02;97.30
42001;BME280;27689;48.390;10.856;2022-09-21T00:09:01;96880.59;;;7.03;96.84
42001;BME280;27689;48.390;10.856;2022-09-21T00:11:47;96882.38;;;7.03;96.60
42001;BME280;27689;48.390;10.856;2022-09-21T00:14:31;96872.38;;;6.97;96.27
42001;BME280;27689;48.390;10.856;2022-09-21T00:17:15;96873.44;;;6.94;96.47
42001;BME280;27689;48.390;10.856;2022-09-21T00:19:59;96868.63;;;6.88;96.30
42001;BME280;27689;48.390;10.856;2022-09-21T00:22:46;96873.00;;;6.88;96.51
42001;BME280;27689;48.390;10.856;2022-09-21T00:25:30;96880.53;;;6.80;95.95
42001;BME280;27689;48.390;10.856;2022-09-21T00:28:14;96879.06;;;6.76;96.16
42001;BME280;27689;48.390;10.856;2022-09-21T00:31:05;96882.28;;;6.79;96.25
42001;BME280;27689;48.390;10.856;2022-09-21T00:33:50;96880.81;;;6.75;96.50
42001;BME280;27689;48.390;10.856;2022-09-21T00:36:34;96879.25;;;6.72;97.36
42001;BME280;27689;48.390;10.856;2022-09-21T00:39:18;96877.59;;;6.71;98.90
42001;BME280;27689;48.390;10.856;2022-09-21T00:42:09;96869.38;;;6.65;100.00
42001;BME280;27689;48.390;10.856;2022-09-21T00:44:53;96876.75;;;6.71;99.78
42001;BME280;27689;48.390;10.856;2022-09-21T00:47:40;96871.34;;;6.61;99.42
42001;BME280;27689;48.390;10.856;2022-09-21T00:50:25;96870.50;;;6.61;99.39
42001;BME280;27689;48.390;10.856;2022-09-21T00:53:09;96884.16;;;6.64;98.64
42001;BME280;27689;48.390;10.856;2022-09-21T00:55:55;96882.41;;;6.65;98.23
42001;BME280;27689;48.390;10.856;2022-09-21T00:58:45;96884.03;;;6.53;99.03
42001;BME280;27689;48.390;10.856;2022-09-21T01:01:31;96882.34;;;6.27;100.00
42001;BME280;27689;48.390;10.856;2022-09-21T01:04:16;96880.34;;;6.18;100.00
42001;BME280;27689;48.390;10.856;2022-09-21T01:07:05;96887.03;;;6.22;100.00
42001;BME280;27689;48.390;10.856;2022-09-21T01:09:52;96882.97;;;6.18;100.00
42001;BME280;27689;48.390;10.856;2022-09-21T01:16:37;96885.84;;;6.13;100.00
42001;BME280;27689;48.390;10.856;2022-09-21T01:22:28;96886.50;;;6.17;100.00
42001;BME280;27689;48.390;10.856;2022-09-21T01:25:31;96877.47;;;6.22;100.00
42001;BME280;27689;48.390;10.856;2022-09-21T01:28:32;96877.34;;;6.24;100.00
42001;BME280;27689;48.390;10.856;2022-09-21T01:31:41;96875.47;;;6.26;100.00
42001;BME280;27689;48.390;10.856;2022-09-21T01:34:35;96882.97;;;6.30;100.00
42001;BME280;27689;48.390;10.856;2022-09-21T01:37:30;96876.09;;;6.29;100.00
42001;BME280;27689;48.390;10.856;2022-09-21T01:40:20;96881.50;;;6.26;100.00
42001;BME280;27689;48.390;10.856;2022-09-21T01:43:09;96883.69;;;6.20;99.58
42001;BME280;27689;48.390;10.856;2022-09-21T01:45:54;96886.50;;;6.17;99.76
42001;BME280;27689;48.390;10.856;2022-09-21T01:48:48;96886.69;;;6.14;100.00
42001;BME280;27689;48.390;10.856;2022-09-21T01:51:33;96886.88;;;6.11;99.84
42001;BME280;27689;48.390;10.856;2022-09-21T01:54:22;96884.59;;;6.06;100.00
42001;BME280;27689;48.390;10.856;2022-09-21T01:57:24;96882.00;;;6.06;99.90
42001;BME280;27689;48.390;10.856;2022-09-21T02:00:09;96886.66;;;6.01;99.07
42001;BME280;27689;48.390;10.856;2022-09-21T02:03:06;96887.47;;;5.89;100.00
42001;BME280;27689;48.390;10.856;2022-09-21T02:05:52;96878.06;;;5.86;100.00
42001;BME280;27689;48.390;10.856;2022-09-21T02:08:37;96883.81;;;5.91;99.09
42001;BME280;27689;48.390;10.856;2022-09-21T02:11:21;96881.50;;;5.87;99.71
42001;BME280;27689;48.390;10.856;2022-09-21T02:14:06;96884.38;;;5.82;100.00
42001;BME280;27689;48.390;10.856;2022-09-21T02:19:56;96888.53;;;5.85;99.60
42001;BME280;27689;48.390;10.856;2022-09-21T02:23:03;96877.00;;;5.76;99.13
42001;BME280;27689;48.390;10.856;2022-09-21T02:25:56;96884.13;;;5.73;98.54
42001;BME280;27689;48.390;10.856;2022-09-21T02:28:49;96885.81;;;5.74;98.76
42001;BME280;27689;48.390;10.856;2022-09-21T02:31:48;96883.41;;;5.71;99.08
42001;BME280;27689;48.390;10.856;2022-09-21T02:34:45;96887.66;;;5.72;98.81
42001;BME280;27689;48.390;10.856;2022-09-21T02:37:45;96889.72;;;5.66;99.17
42001;BME280;27689;48.390;10.856;2022-09-21T02:40:39;96896.16;;;5.61;99.34
42001;BME280;27689;48.390;10.856;2022-09-21T02:43:26;96886.50;;;5.63;98.39
42001;BME280;27689;48.390;10.856;2022-09-21T02:46:27;96895.88;;;5.51;99.18
42001;BME280;27689;48.390;10.856;2022-09-21T02:49:18;96894.97;;;5.52;99.20
42001;BME280;27689;48.390;10.856;2022-09-21T02:52:12;96884.88;;;5.48;98.99
42001;BME280;27689;48.390;10.856;2022-09-21T02:54:57;96887.75;;;5.43;99.07
42001;BME280;27689;48.390;10.856;2022-09-21T02:57:43;96886.72;;;5.46;99.15
42001;BME280;27689;48.390;10.856;2022-09-21T03:00:29;96882.28;;;5.48;98.54
42001;BME280;27689;48.390;10.856;2022-09-21T03:03:24;96882.66;;;5.42;98.41
42001;BME280;27689;48.390;10.856;2022-09-21T03:06:09;96881.25;;;5.36;98.53
42001;BME280;27689;48.390;10.856;2022-09-21T03:08:53;96888.53;;;5.31;98.70
42001;BME280;27689;48.390;10.856;2022-09-21T03:11:37;96885.19;;;5.29;98.69
42001;BME280;27689;48.390;10.856;2022-09-21T03:14:22;96872.56;;;5.23;98.96
42001;BME280;27689;48.390;10.856;2022-09-21T03:17:06;96884.72;;;5.22;98.95
42001;BME280;27689;48.390;10.856;2022-09-21T03:19:50;96889.72;;;5.25;98.63
42001;BME280;27689;48.390;10.856;2022-09-21T03:22:37;96888.81;;;5.26;98.61
42001;BME280;27689;48.390;10.856;2022-09-21T03:25:21;96893.44;;;5.21;98.54
42001;BME280;27689;48.390;10.856;2022-09-21T03:28:05;96890.31;;;5.16;97.85
42001;BME280;27689;48.390;10.856;2022-09-21T03:30:50;96894.94;;;5.11;98.87
42001;BME280;27689;48.390;10.856;2022-09-21T03:33:34;96899.22;;;5.12;98.93
42001;BME280;27689;48.390;10.856;2022-09-21T03:36:18;96893.44;;;5.07;98.96
42001;BME280;27689;48.390;10.856;2022-09-21T03:39:04;96906.34;;;5.09;98.82
42001;BME280;27689;48.390;10.856;2022-09-21T03:41:48;96898.28;;;4.99;98.34
42001;BME280;27689;48.390;10.856;2022-09-21T03:44:33;96906.91;;;5.00;97.98
42001;BME280;27689;48.390;10.856;2022-09-21T03:47:17;96902.00;;;4.95;98.69
42001;BME280;27689;48.390;10.856;2022-09-21T03:50:00;96902.09;;;4.93;98.60
42001;BME280;27689;48.390;10.856;2022-09-21T03:52:44;96896.88;;;4.93;98.51
42001;BME280;27689;48.390;10.856;2022-09-21T03:55:29;96896.88;;;4.93;99.04
42001;BME280;27689;48.390;10.856;2022-09-21T03:58:13;96896.81;;;4.95;98.85
42001;BME280;27689;48.390;10.856;2022-09-21T04:01:01;96892.53;;;4.94;99.23
42001;BME280;27689;48.390;10.856;2022-09-21T04:03:46;96903.84;;;4.93;100.00
42001;BME280;27689;48.390;10.856;2022-09-21T04:06:30;96897.19;;;4.89;100.00
42001;BME280;27689;48.390;10.856;2022-09-21T04:09:14;96915.16;;;4.92;99.98
42001;BME280;27689;48.390;10.856;2022-09-21T04:11:58;96911.53;;;4.94;99.95
42001;BME280;27689;48.390;10.856;2022-09-21T04:14:42;96911.53;;;4.94;100.00
42001;BME280;27689;48.390;10.856;2022-09-21T04:17:27;96912.66;;;4.90;99.82
42001;BME280;27689;48.390;10.856;2022-09-21T04:20:11;96912.66;;;4.90;99.83
42001;BME280;27689;48.390;10.856;2022-09-21T04:22:55;96910.63;;;4.81;99.57
42001;BME280;27689;48.390;10.856;2022-09-21T04:25:39;96914.41;;;4.76;99.73
42001;BME280;27689;48.390;10.856;2022-09-21T04:28:24;96918.97;;;4.72;100.00
42001;BME280;27689;48.390;10.856;2022-09-21T04:31:08;96919.72;;;4.74;100.00
42001;BME280;27689;48.390;10.856;2022-09-21T04:33:53;96922.47;;;4.71;99.91
42001;BME280;27689;48.390;10.856;2022-09-21T04:36:38;96918.47;;;4.66;99.63
42001;BME280;27689;48.390;10.856;2022-09-21T04:39:22;96924.13;;;4.58;99.76
42001;BME280;27689;48.390;10.856;2022-09-21T04:42:06;96932.47;;;4.63;99.74
42001;BME280;27689;48.390;10.856;2022-09-21T04:44:50;96920.13;;;4.52;99.63
42001;BME280;27689;48.390;10.856;2022-09-21T04:47:34;96934.69;;;4.55;100.00
42001;BME280;27689;48.390;10.856;2022-09-21T04:50:18;96933.09;;;4.52;100.00
42001;BME280;27689;48.390;10.856;2022-09-21T04:53:03;96935.53;;;4.55;100.00
42001;BME280;27689;48.390;10.856;2022-09-21T04:55:46;96938.28;;;4.52;100.00
42001;BME280;27689;48.390;10.856;2022-09-21T04:58:31;96934.28;;;4.47;100.00
42001;BME280;27689;48.390;10.856;2022-09-21T05:01:15;96942.91;;;4.47;100.00
42001;BME280;27689;48.390;10.856;2022-09-21T05:04:00;96949.75;;;4.48;100.00
42001;BME280;27689;48.390;10.856;2022-09-21T05:06:47;96950.44;;;4.52;100.00
42001;BME280;27689;48.390;10.856;2022-09-21T05:09:31;96951.19;;;4.54;100.00
42001;BME280;27689;48.390;10.856;2022-09-21T05:12:34;96952.03;;;4.54;100.00
42001;BME280;27689;48.390;10.856;2022-09-21T05:15:18;96953.88;;;4.52;100.00
42001;BME280;27689;48.390;10.856;2022-09-21T05:18:02;96954.19;;;4.46;100.00
42001;BME280;27689;48.390;10.856;2022-09-21T05:20:57;96953.94;;;4.51;100.00
42001;BME280;27689;48.390;10.856;2022-09-21T05:23:41;96950.50;;;4.50;100.00
42001;BME280;27689;48.390;10.856;2022-09-21T05:26:25;96954.94;;;4.48;100.00
42001;BME280;27689;48.390;10.856;2022-09-21T05:29:09;96971.34;;;4.49;100.00
42001;BME280;27689;48.390;10.856;2022-09-21T05:35:12;96970.25;;;4.53;100.00
42001;BME280;27689;48.390;10.856;2022-09-21T05:38:08;96962.56;;;4.51;100.00
42001;BME280;27689;48.390;10.856;2022-09-21T05:40:56;96969.25;;;4.55;100.00
42001;BME280;27689;48.390;10.856;2022-09-21T05:43:40;96975.13;;;4.59;100.00
42001;BME280;27689;48.390;10.856;2022-09-21T05:49:19;96976.06;;;4.72;100.00
42001;BME280;27689;48.390;10.856;2022-09-21T05:55:49;96980.69;;;4.81;100.00
42001;BME280;27689;48.390;10.856;2022-09-21T05:58:41;96978.69;;;4.86;100.00
42001;BME280;27689;48.390;10.856;2022-09-21T06:01:50;96981.00;;;4.91;100.00
42001;BME280;27689;48.390;10.856;2022-09-21T06:04:39;96970.59;;;4.91;100.00
42001;BME280;27689;48.390;10.856;2022-09-21T06:07:23;96972.66;;;5.00;100.00
42001;BME280;27689;48.390;10.856;2022-09-21T06:10:12;96975.38;;;5.13;100.00
42001;BME280;27689;48.390;10.856;2022-09-21T06:12:56;96978.53;;;5.18;100.00
42001;BME280;27689;48.390;10.856;2022-09-21T06:15:40;96972.84;;;5.25;100.00
42001;BME280;27689;48.390;10.856;2022-09-21T06:18:24;96979.38;;;5.32;100.00
42001;BME280;27689;48.390;10.856;2022-09-21T06:21:08;96981.94;;;5.47;100.00
42001;BME280;27689;48.390;10.856;2022-09-21T06:23:52;96970.88;;;5.57;100.00
42001;BME280;27689;48.390;10.856;2022-09-21T06:26:37;96976.16;;;5.70;100.00
42001;BME280;27689;48.390;10.856;2022-09-21T06:29:20;96979.66;;;5.83;100.00
42001;BME280;27689;48.390;10.856;2022-09-21T06:32:06;96972.03;;;5.94;100.00
42001;BME280;27689;48.390;10.856;2022-09-21T06:34:50;96967.63;;;6.09;100.00
42001;BME280;27689;48.390;10.856;2022-09-21T06:37:34;96968.53;;;6.22;100.00
42001;BME280;27689;48.390;10.856;2022-09-21T06:40:21;96964.81;;;6.39;100.00
42001;BME280;27689;48.390;10.856;2022-09-21T06:43:05;96965.69;;;6.52;100.00
42001;BME280;27689;48.390;10.856;2022-09-21T06:45:57;96968.22;;;6.66;100.00
42001;BME280;27689;48.390;10.856;2022-09-21T06:48:41;96959.78;;;6.76;100.00
42001;BME280;27689;48.390;10.856;2022-09-21T06:51:25;96952.06;;;6.87;100.00
42001;BME280;27689;48.390;10.856;2022-09-21T06:54:09;96959.19;;;6.97;100.00
42001;BME280;27689;48.390;10.856;2022-09-21T06:56:54;96969.06;;;7.18;100.00
42001;BME280;27689;48.390;10.856;2022-09-21T06:59:38;96964.03;;;7.27;100.00
42001;BME280;27689;48.390;10.856;2022-09-21T07:02:22;96975.19;;;7.42;100.00
42001;BME280;27689;48.390;10.856;2022-09-21T07:05:06;96964.34;;;7.48;100.00
42001;BME280;27689;48.390;10.856;2022-09-21T07:07:55;96978.81;;;7.65;100.00
42001;BME280;27689;48.390;10.856;2022-09-21T07:10:39;96976.38;;;7.74;100.00
42001;BME280;27689;48.390;10.856;2022-09-21T07:13:27;96966.88;;;7.86;100.00
42001;BME280;27689;48.390;10.856;2022-09-21T07:16:11;96980.59;;;8.01;100.00
42001;BME280;27689;48.390;10.856;2022-09-21T07:18:55;96976.28;;;8.12;100.00
42001;BME280;27689;48.390;10.856;2022-09-21T07:21:39;96978.22;;;8.22;100.00
42001;BME280;27689;48.390;10.856;2022-09-21T07:24:23;96976.13;;;8.27;100.00
42001;BME280;27689;48.390;10.856;2022-09-21T07:27:07;96981.19;;;8.41;100.00
42001;BME280;27689;48.390;10.856;2022-09-21T07:29:51;96972.88;;;8.47;100.00
42001;BME280;27689;48.390;10.856;2022-09-21T07:32:35;96969.84;;;8.53;100.00
42001;BME280;27689;48.390;10.856;2022-09-21T07:35:19;96976.16;;;8.62;100.00
42001;BME280;27689;48.390;10.856;2022-09-21T07:38:05;96985.31;;;8.67;100.00
42001;BME280;27689;48.390;10.856;2022-09-21T07:40:49;96985.00;;;8.72;100.00
42001;BME280;27689;48.390;10.856;2022-09-21T07:43:33;96993.44;;;8.75;100.00
42001;BME280;27689;48.390;10.856;2022-09-21T07:46:17;96987.97;;;8.78;100.00
42001;BME280;27689;48.390;10.856;2022-09-21T07:49:01;96990.13;;;8.84;100.00
42001;BME280;27689;48.390;10.856;2022-09-21T07:51:47;96986.09;;;8.92;100.00
42001;BME280;27689;48.390;10.856;2022-09-21T07:54:31;96993.25;;;9.01;100.00
42001;BME280;27689;48.390;10.856;2022-09-21T07:57:16;96996.94;;;9.09;100.00
42001;BME280;27689;48.390;10.856;2022-09-21T08:00:19;96989.13;;;9.20;100.00
42001;BME280;27689;48.390;10.856;2022-09-21T08:03:04;96988.22;;;9.33;100.00
42001;BME280;27689;48.390;10.856;2022-09-21T08:05:49;96987.47;;;9.53;100.00
42001;BME280;27689;48.390;10.856;2022-09-21T08:08:34;96984.63;;;9.67;100.00
42001;BME280;27689;48.390;10.856;2022-09-21T08:11:19;96992.13;;;9.83;99.22
42001;BME280;27689;48.390;10.856;2022-09-21T08:14:05;96982.81;;;10.01;98.71
42001;BME280;27689;48.390;10.856;2022-09-21T08:16:48;96982.44;;;10.17;96.83
42001;BME280;27689;48.390;10.856;2022-09-21T08:19:32;96982.38;;;10.39;96.45
42001;BME280;27689;48.390;10.856;2022-09-21T08:22:17;96985.75;;;10.62;95.52
42001;BME280;27689;48.390;10.856;2022-09-21T08:25:02;96984.19;;;10.91;94.26
42001;BME280;27689;48.390;10.856;2022-09-21T08:27:47;96975.09;;;11.16;93.46
42001;BME280;27689;48.390;10.856;2022-09-21T08:30:31;96976.50;;;11.41;91.62
42001;BME280;27689;48.390;10.856;2022-09-21T08:33:16;96979.44;;;11.88;89.05
42001;BME280;27689;48.390;10.856;2022-09-21T08:36:01;96981.75;;;12.12;86.96
42001;BME280;27689;48.390;10.856;2022-09-21T08:38:45;96984.28;;;12.42;86.25
42001;BME280;27689;48.390;10.856;2022-09-21T08:44:47;96990.47;;;13.08;81.30
42001;BME280;27689;48.390;10.856;2022-09-21T08:47:44;96975.97;;;13.04;77.45
42001;BME280;27689;48.390;10.856;2022-09-21T08:50:43;96983.97;;;13.32;78.28
42001;BME280;27689;48.390;10.856;2022-09-21T08:53:33;96986.72;;;13.50;77.90
42001;BME280;27689;48.390;10.856;2022-09-21T08:56:19;96985.28;;;13.65;75.31
42001;BME280;27689;48.390;10.856;2022-09-21T08:59:11;96981.28;;;13.88;73.43
42001;BME280;27689;48.390;10.856;2022-09-21T09:01:59;96979.75;;;13.86;67.68
42001;BME280;27689;48.390;10.856;2022-09-21T09:04:55;96978.84;;;13.30;71.77
42001;BME280;27689;48.390;10.856;2022-09-21T09:14:26;96969.81;;;13.80;70.24
42001;BME280;27689;48.390;10.856;2022-09-21T09:23:23;96965.19;;;13.91;70.55
42001;BME280;27689;48.390;10.856;2022-09-21T09:26:16;96961.59;;;14.10;69.20
42001;BME280;27689;48.390;10.856;2022-09-21T09:31:54;96954.22;;;14.41;70.08
42001;BME280;27689;48.390;10.856;2022-09-21T09:35:01;96949.41;;;14.54;66.87
42001;BME280;27689;48.390;10.856;2022-09-21T09:37:48;96953.00;;;14.71;68.29
42001;BME280;27689;48.390;10.856;2022-09-21T09:43:58;96926.81;;;15.13;65.22
42001;BME280;27689;48.390;10.856;2022-09-21T09:52:36;96932.44;;;15.70;59.05
42001;BME280;27689;48.390;10.856;2022-09-21T09:55:23;96930.88;;;15.59;60.45
42001;BME280;27689;48.390;10.856;2022-09-21T10:02:07;96918.88;;;15.39;59.13
42001;BME280;27689;48.390;10.856;2022-09-21T10:05:03;96906.78;;;15.62;59.75
42001;BME280;27689;48.390;10.856;2022-09-21T10:07:52;96914.91;;;15.69;58.13
42001;BME280;27689;48.390;10.856;2022-09-21T10:10:39;96921.09;;;15.94;59.28
42001;BME280;27689;48.390;10.856;2022-09-21T10:13:28;96916.91;;;16.17;60.36
42001;BME280;27689;48.390;10.856;2022-09-21T10:16:21;96910.97;;;16.39;60.46
42001;BME280;27689;48.390;10.856;2022-09-21T10:19:14;96905.03;;;16.29;56.80
42001;BME280;27689;48.390;10.856;2022-09-21T10:22:03;96907.97;;;16.34;59.09
42001;BME280;27689;48.390;10.856;2022-09-21T10:24:50;96904.34;;;16.27;54.25
42001;BME280;27689;48.390;10.856;2022-09-21T10:27:36;96898.41;;;16.41;58.81
42001;BME280;27689;48.390;10.856;2022-09-21T10:30:30;96906.50;;;16.40;57.33
42001;BME280;27689;48.390;10.856;2022-09-21T10:33:19;96908.44;;;16.13;58.25
42001;BME280;27689;48.390;10.856;2022-09-21T10:36:04;96902.44;;;15.95;59.63
42001;BME280;27689;48.390;10.856;2022-09-21T10:38:50;96900.13;;;15.84;59.79
42001;BME280;27689;48.390;10.856;2022-09-21T10:41:36;96899.44;;;15.82;60.07
42001;BME280;27689;48.390;10.856;2022-09-21T10:44:24;96900.22;;;15.66;61.08
42001;BME280;27689;48.390;10.856;2022-09-21T10:47:18;96900.34;;;15.65;60.21
42001;BME280;27689;48.390;10.856;2022-09-21T10:55:17;96891.03;;;15.86;53.91
42001;BME280;27689;48.390;10.856;2022-09-21T10:58:02;96881.19;;;16.13;59.87
42001;BME280;27689;48.390;10.856;2022-09-21T11:00:52;96886.03;;;16.42;57.85
42001;BME280;27689;48.390;10.856;2022-09-21T11:06:43;96880.06;;;16.56;55.57
42001;BME280;27689;48.390;10.856;2022-09-21T11:09:52;96877.63;;;16.63;50.39
42001;BME280;27689;48.390;10.856;2022-09-21T11:12:47;96875.97;;;16.62;48.38
42001;BME280;27689;48.390;10.856;2022-09-21T11:18:42;96876.63;;;16.88;49.76
42001;BME280;27689;48.390;10.856;2022-09-21T11:21:40;96881.53;;;17.15;51.83
42001;BME280;27689;48.390;10.856;2022-09-21T11:27:25;96877.41;;;17.21;52.46
42001;BME280;27689;48.390;10.856;2022-09-21T11:30:12;96868.31;;;17.15;52.02
42001;BME280;27689;48.390;10.856;2022-09-21T11:33:09;96867.31;;;17.08;52.35
42001;BME280;27689;48.390;10.856;2022-09-21T11:36:16;96879.41;;;16.46;51.20
42001;BME280;27689;48.390;10.856;2022-09-21T11:44:50;96861.88;;;16.53;54.76
42001;BME280;27689;48.390;10.856;2022-09-21T11:56:37;96856.59;;;16.37;52.76
42001;BME280;27689;48.390;10.856;2022-09-21T12:05:16;96839.66;;;17.19;49.46
42001;BME280;27689;48.390;10.856;2022-09-21T12:17:22;96843.19;;;17.03;50.05
42001;BME280;27689;48.390;10.856;2022-09-21T12:20:45;96837.31;;;17.32;50.02
42001;BME280;27689;48.390;10.856;2022-09-21T12:23:42;96832.69;;;17.73;51.07
42001;BME280;27689;48.390;10.856;2022-09-21T12:26:30;96828.91;;;17.59;45.20
42001;BME280;27689;48.390;10.856;2022-09-21T12:35:05;96828.19;;;18.05;47.69
42001;BME280;27689;48.390;10.856;2022-09-21T12:38:00;96820.53;;;18.32;48.70
42001;BME280;27689;48.390;10.856;2022-09-21T12:41:10;96822.97;;;18.57;48.10
42001;BME280;27689;48.390;10.856;2022-09-21T12:44:13;96812.16;;;18.66;46.37
42001;BME280;27689;48.390;10.856;2022-09-21T12:47:04;96810.38;;;18.59;47.12
42001;BME280;27689;48.390;10.856;2022-09-21T12:49:58;96814.00;;;18.66;46.75
42001;BME280;27689;48.390;10.856;2022-09-21T12:52:49;96812.16;;;18.66;44.86
42001;BME280;27689;48.390;10.856;2022-09-21T12:55:42;96816.63;;;18.66;43.56
42001;BME280;27689;48.390;10.856;2022-09-21T13:02:14;96825.13;;;17.54;44.18
42001;BME280;27689;48.390;10.856;2022-09-21T13:05:13;96824.44;;;17.60;45.24
42001;BME280;27689;48.390;10.856;2022-09-21T13:08:09;96812.91;;;17.84;45.03
42001;BME280;27689;48.390;10.856;2022-09-21T13:16:36;96805.09;;;17.90;44.27
42001;BME280;27689;48.390;10.856;2022-09-21T13:19:24;96800.44;;;17.92;42.76
42001;BME280;27689;48.390;10.856;2022-09-21T13:25:02;96806.50;;;17.70;43.87
42001;BME280;27689;48.390;10.856;2022-09-21T13:34:33;96787.47;;;17.27;42.70
42001;BME280;27689;48.390;10.856;2022-09-21T13:42:47;96791.72;;;17.06;41.64
42001;BME280;27689;48.390;10.856;2022-09-21T13:48:23;96776.28;;;17.17;43.60
42001;BME280;27689;48.390;10.856;2022-09-21T13:51:13;96791.53;;;17.07;44.31
42001;BME280;27689;48.390;10.856;2022-09-21T13:54:10;96786.75;;;17.03;44.86
42001;BME280;27689;48.390;10.856;2022-09-21T14:03:05;96787.28;;;16.82;44.69
42001;BME280;27689;48.390;10.856;2022-09-21T14:06:06;96797.56;;;16.85;44.20
42001;BME280;27689;48.390;10.856;2022-09-21T14:09:22;96782.88;;;16.74;44.74
42001;BME280;27689;48.390;10.856;2022-09-21T14:12:17;96790.63;;;16.60;45.67
42001;BME280;27689;48.390;10.856;2022-09-21T14:15:30;96782.19;;;16.56;44.55
42001;BME280;27689;48.390;10.856;2022-09-21T14:24:16;96786.34;;;16.42;46.72
42001;BME280;27689;48.390;10.856;2022-09-21T14:27:26;96787.31;;;16.33;47.24
42001;BME280;27689;48.390;10.856;2022-09-21T14:30:30;96790.63;;;16.03;46.96
42001;BME280;27689;48.390;10.856;2022-09-21T14:33:24;96785.97;;;15.80;48.13
42001;BME280;27689;48.390;10.856;2022-09-21T14:36:14;96783.50;;;15.79;48.68
42001;BME280;27689;48.390;10.856;2022-09-21T14:39:03;96785.16;;;15.80;49.01
42001;BME280;27689;48.390;10.856;2022-09-21T14:41:50;96784.84;;;15.83;49.50
42001;BME280;27689;48.390;10.856;2022-09-21T14:55:18;96777.28;;;15.46;46.01
42001;BME280;27689;48.390;10.856;2022-09-21T15:04:31;96774.19;;;15.08;47.80
42001;BME280;27689;48.390;10.856;2022-09-21T15:07:38;96770.50;;;15.01;49.57
42001;BME280;27689;48.390;10.856;2022-09-21T15:14:21;96758.13;;;14.94;48.68
42001;BME280;27689;48.390;10.856;2022-09-21T15:17:33;96757.97;;;14.95;49.44
42001;BME280;27689;48.390;10.856;2022-09-21T15:20:55;96762.25;;;14.96;49.95
42001;BME280;27689;48.390;10.856;2022-09-21T15:23:47;96757.97;;;14.95;49.62
42001;BME280;27689;48.390;10.856;2022-09-21T15:26:44;96752.69;;;14.95;50.28
42001;BME280;27689;48.390;10.856;2022-09-21T15:29:37;96755.25;;;14.87;50.01
42001;BME280;27689;48.390;10.856;2022-09-21T15:33:15;96763.81;;;14.81;48.34
42001;BME280;27689;48.390;10.856;2022-09-21T15:35:52;96750.44;;;14.74;48.86
42001;BME280;27689;48.390;10.856;2022-09-21T15:39:26;96753.03;;;14.66;49.48
42001;BME280;27689;48.390;10.856;2022-09-21T15:46:04;96750.06;;;14.43;46.08
42001;BME280;27689;48.390;10.856;2022-09-21T15:48:49;96747.13;;;14.46;48.82
42001;BME280;27689;48.390;10.856;2022-09-21T15:51:37;96742.00;;;14.45;50.16
42001;BME280;27689;48.390;10.856;2022-09-21T15:54:42;96743.00;;;14.44;50.56
42001;BME280;27689;48.390;10.856;2022-09-21T16:00:24;96746.63;;;14.43;50.83
42001;BME280;27689;48.390;10.856;2022-09-21T16:03:18;96740.56;;;14.51;50.18
42001;BME280;27689;48.390;10.856;2022-09-21T16:06:24;96749.84;;;14.37;49.85
42001;BME280;27689;48.390;10.856;2022-09-21T16:12:37;96746.13;;;14.22;52.21
42001;BME280;27689;48.390;10.856;2022-09-21T16:15:27;96753.50;;;14.18;51.75
42001;BME280;27689;48.390;10.856;2022-09-21T16:18:28;96757.06;;;14.09;52.22
42001;BME280;27689;48.390;10.856;2022-09-21T16:21:34;96749.22;;;13.99;51.03
42001;BME280;27689;48.390;10.856;2022-09-21T16:24:21;96759.22;;;13.96;52.54
42001;BME280;27689;48.390;10.856;2022-09-21T16:27:15;96759.84;;;13.90;52.54
42001;BME280;27689;48.390;10.856;2022-09-21T16:29:59;96756.78;;;13.76;53.55
42001;BME280;27689;48.390;10.856;2022-09-21T16:32:43;96760.69;;;13.72;54.18
42001;BME280;27689;48.390;10.856;2022-09-21T16:35:37;96755.34;;;13.64;54.71
42001;BME280;27689;48.390;10.856;2022-09-21T16:38:23;96755.94;;;13.58;55.19
42001;BME280;27689;48.390;10.856;2022-09-21T16:41:07;96768.72;;;13.53;55.42
42001;BME280;27689;48.390;10.856;2022-09-21T16:43:51;96760.47;;;13.48;55.98
42001;BME280;27689;48.390;10.856;2022-09-21T16:46:39;96761.03;;;13.42;55.73
42001;BME280;27689;48.390;10.856;2022-09-21T16:49:25;96768.72;;;13.35;55.85
42001;BME280;27689;48.390;10.856;2022-09-21T16:52:11;96763.19;;;13.29;56.11
42001;BME280;27689;48.390;10.856;2022-09-21T16:54:56;96769.88;;;13.23;56.59
42001;BME280;27689;48.390;10.856;2022-09-21T16:57:41;96767.41;;;13.12;56.94
42001;BME280;27689;48.390;10.856;2022-09-21T17:00:29;96767.00;;;13.07;56.82
42001;BME280;27689;48.390;10.856;2022-09-21T17:03:14;96760.06;;;12.88;57.62
42001;BME280;27689;48.390;10.856;2022-09-21T17:05:59;96765.47;;;12.87;57.92
42001;BME280;27689;48.390;10.856;2022-09-21T17:08:44;96769.13;;;12.76;58.67
42001;BME280;27689;48.390;10.856;2022-09-21T17:11:31;96762.75;;;12.69;58.85
42001;BME280;27689;48.390;10.856;2022-09-21T17:14:14;96773.44;;;12.58;59.57
42001;BME280;27689;48.390;10.856;2022-09-21T17:17:03;96764.59;;;12.49;59.41
42001;BME280;27689;48.390;10.856;2022-09-21T17:19:50;96772.25;;;12.43;60.49
42001;BME280;27689;48.390;10.856;2022-09-21T17:22:34;96767.53;;;12.36;60.45
42001;BME280;27689;48.390;10.856;2022-09-21T17:25:18;96774.22;;;12.21;61.93
42001;BME280;27689;48.390;10.856;2022-09-21T17:28:11;96766.06;;;12.15;62.14
42001;BME280;27689;48.390;10.856;2022-09-21T17:31:53;96772.03;;;11.97;63.76
42001;BME280;27689;48.390;10.856;2022-09-21T17:34:11;96777.84;;;11.82;64.03
42001;BME280;27689;48.390;10.856;2022-09-21T17:36:54;96774.91;;;11.75;63.79
42001;BME280;27689;48.390;10.856;2022-09-21T17:39:39;96769.78;;;11.64;64.89